sensor_id;sensor_type;location;lat;lon;timestamp;P1;durP1;ratioP1;P2;durP2;ratioP2
13849;SDS011;6995;52.618;13.488;2022-07-22T00:00:25;42.63;;;40.35;;
13849;SDS011;6995;52.618;13.488;2022-07-22T00:02:52;40.75;;;38.65;;
13849;SDS011;6995;52.618;13.488;2022-07-22T00:05:18;43.38;;;40.65;;
13849;SDS011;6995;52.618;13.488;2022-07-22T00:07:43;42.10;;;39.85;;
13849;SDS011;6995;52.618;13.488;2022-07-22T00:10:09;42.90;;;40.50;;
13849;SDS011;6995;52.618;13.488;2022-07-22T00:12:36;45.75;;;43.20;;
13849;SDS011;6995;52.618;13.488;2022-07-22T00:15:03;41.05;;;38.67;;
13849;SDS011;6995;52.618;13.488;2022-07-22T00:17:29;42.25;;;40.10;;
13849;SDS011;6995;52.618;13.488;2022-07-22T00:19:55;40.42;;;38.03;;
13849;SDS011;6995;52.618;13.488;2022-07-22T00:22:21;40.08;;;37.78;;
13849;SDS011;6995;52.618;13.488;2022-07-22T00:24:46;39.95;;;37.85;;
13849;SDS011;6995;52.618;13.488;2022-07-22T00:27:12;41.10;;;38.42;;
13849;SDS011;6995;52.618;13.488;2022-07-22T00:29:38;41.05;;;38.83;;
13849;SDS011;6995;52.618;13.488;2022-07-22T00:32:03;40.10;;;37.95;;
13849;SDS011;6995;52.618;13.488;2022-07-22T00:34:29;39.15;;;36.95;;
13849;SDS011;6995;52.618;13.488;2022-07-22T00:36:55;40.35;;;38.17;;
13849;SDS011;6995;52.618;13.488;2022-07-22T00:39:20;38.65;;;36.45;;
13849;SDS011;6995;52.618;13.488;2022-07-22T00:41:47;36.90;;;34.60;;
13849;SDS011;6995;52.618;13.488;2022-07-22T00:44:13;36.75;;;34.78;;
13849;SDS011;6995;52.618;13.488;2022-07-22T00:46:39;35.88;;;33.97;;
13849;SDS011;6995;52.618;13.488;2022-07-22T00:49:05;35.22;;;33.33;;
13849;SDS011;6995;52.618;13.488;2022-07-22T00:51:32;34.22;;;32.30;;
13849;SDS011;6995;52.618;13.488;2022-07-22T00:53:58;32.25;;;30.45;;
13849;SDS011;6995;52.618;13.488;2022-07-22T00:56:26;33.22;;;31.27;;
13849;SDS011;6995;52.618;13.488;2022-07-22T00:58:53;32.28;;;30.58;;
13849;SDS011;6995;52.618;13.488;2022-07-22T01:01:21;34.95;;;32.88;;
13849;SDS011;6995;52.618;13.488;2022-07-22T01:03:47;31.65;;;29.73;;
13849;SDS011;6995;52.618;13.488;2022-07-22T01:06:12;32.78;;;30.77;;
13849;SDS011;6995;52.618;13.488;2022-07-22T01:08:38;32.22;;;30.42;;
13849;SDS011;6995;52.618;13.488;2022-07-22T01:11:08;32.13;;;30.33;;
13849;SDS011;6995;52.618;13.488;2022-07-22T01:13:39;30.33;;;28.75;;
13849;SDS011;6995;52.618;13.488;2022-07-22T01:16:06;31.77;;;29.88;;
13849;SDS011;6995;52.618;13.488;2022-07-22T01:18:33;33.83;;;31.92;;
13849;SDS011;6995;52.618;13.488;2022-07-22T01:20:59;31.05;;;29.40;;
13849;SDS011;6995;52.618;13.488;2022-07-22T01:23:25;32.75;;;30.90;;
13849;SDS011;6995;52.618;13.488;2022-07-22T01:25:51;29.42;;;27.77;;
13849;SDS011;6995;52.618;13.488;2022-07-22T01:28:17;29.38;;;27.73;;
13849;SDS011;6995;52.618;13.488;2022-07-22T01:30:43;30.17;;;28.67;;
13849;SDS011;6995;52.618;13.488;2022-07-22T01:33:09;30.48;;;28.88;;
13849;SDS011;6995;52.618;13.488;2022-07-22T01:35:35;31.30;;;29.65;;
13849;SDS011;6995;52.618;13.488;2022-07-22T01:38:00;30.70;;;29.00;;
13849;SDS011;6995;52.618;13.488;2022-07-22T01:40:26;31.35;;;29.63;;
13849;SDS011;6995;52.618;13.488;2022-07-22T01:42:52;28.50;;;26.70;;
13849;SDS011;6995;52.618;13.488;2022-07-22T01:45:17;29.15;;;27.45;;
13849;SDS011;6995;52.618;13.488;2022-07-22T01:47:43;28.25;;;26.58;;
13849;SDS011;6995;52.618;13.488;2022-07-22T01:50:11;29.25;;;27.60;;
13849;SDS011;6995;52.618;13.488;2022-07-22T01:52:40;26.67;;;25.33;;
13849;SDS011;6995;52.618;13.488;2022-07-22T01:55:06;28.38;;;26.83;;
13849;SDS011;6995;52.618;13.488;2022-07-22T01:57:32;28.50;;;27.00;;
13849;SDS011;6995;52.618;13.488;2022-07-22T01:59:58;28.77;;;27.00;;
13849;SDS011;6995;52.618;13.488;2022-07-22T02:02:24;28.67;;;27.17;;
13849;SDS011;6995;52.618;13.488;2022-07-22T02:04:49;26.52;;;25.10;;
13849;SDS011;6995;52.618;13.488;2022-07-22T02:07:15;27.83;;;26.33;;
13849;SDS011;6995;52.618;13.488;2022-07-22T02:09:41;28.33;;;26.83;;
13849;SDS011;6995;52.618;13.488;2022-07-22T02:12:07;25.58;;;24.23;;
13849;SDS011;6995;52.618;13.488;2022-07-22T02:14:33;27.00;;;25.40;;
13849;SDS011;6995;52.618;13.488;2022-07-22T02:16:59;27.17;;;25.70;;
13849;SDS011;6995;52.618;13.488;2022-07-22T02:19:25;29.13;;;27.42;;
13849;SDS011;6995;52.618;13.488;2022-07-22T02:21:50;28.42;;;26.98;;
13849;SDS011;6995;52.618;13.488;2022-07-22T02:24:16;28.52;;;27.02;;
13849;SDS011;6995;52.618;13.488;2022-07-22T02:26:41;27.77;;;25.90;;
13849;SDS011;6995;52.618;13.488;2022-07-22T02:29:07;30.38;;;28.77;;
13849;SDS011;6995;52.618;13.488;2022-07-22T02:31:45;28.30;;;26.40;;
13849;SDS011;6995;52.618;13.488;2022-07-22T02:34:11;27.20;;;25.73;;
13849;SDS011;6995;52.618;13.488;2022-07-22T02:36:37;25.02;;;23.73;;
13849;SDS011;6995;52.618;13.488;2022-07-22T02:39:03;26.88;;;25.35;;
13849;SDS011;6995;52.618;13.488;2022-07-22T02:41:29;27.55;;;25.90;;
13849;SDS011;6995;52.618;13.488;2022-07-22T02:43:55;25.85;;;24.45;;
13849;SDS011;6995;52.618;13.488;2022-07-22T02:46:21;29.13;;;27.63;;
13849;SDS011;6995;52.618;13.488;2022-07-22T02:48:47;28.58;;;27.08;;
13849;SDS011;6995;52.618;13.488;2022-07-22T02:51:13;30.25;;;28.75;;
13849;SDS011;6995;52.618;13.488;2022-07-22T02:53:38;30.27;;;28.58;;
13849;SDS011;6995;52.618;13.488;2022-07-22T02:56:04;29.45;;;27.85;;
13849;SDS011;6995;52.618;13.488;2022-07-22T02:58:30;30.42;;;28.73;;
13849;SDS011;6995;52.618;13.488;2022-07-22T03:00:56;29.02;;;27.05;;
13849;SDS011;6995;52.618;13.488;2022-07-22T03:03:22;29.35;;;27.80;;
13849;SDS011;6995;52.618;13.488;2022-07-22T03:05:49;27.75;;;25.90;;
13849;SDS011;6995;52.618;13.488;2022-07-22T03:08:14;28.98;;;27.48;;
13849;SDS011;6995;52.618;13.488;2022-07-22T03:10:40;27.75;;;26.10;;
13849;SDS011;6995;52.618;13.488;2022-07-22T03:13:06;30.17;;;28.58;;
13849;SDS011;6995;52.618;13.488;2022-07-22T03:15:32;33.50;;;31.60;;
13849;SDS011;6995;52.618;13.488;2022-07-22T03:17:57;35.20;;;33.35;;
13849;SDS011;6995;52.618;13.488;2022-07-22T03:20:23;33.08;;;31.20;;
13849;SDS011;6995;52.618;13.488;2022-07-22T03:22:49;32.03;;;30.23;;
13849;SDS011;6995;52.618;13.488;2022-07-22T03:25:14;45.92;;;42.95;;
13849;SDS011;6995;52.618;13.488;2022-07-22T03:27:40;39.83;;;37.72;;
13849;SDS011;6995;52.618;13.488;2022-07-22T03:30:06;46.58;;;44.13;;
13849;SDS011;6995;52.618;13.488;2022-07-22T03:32:31;37.78;;;35.53;;
13849;SDS011;6995;52.618;13.488;2022-07-22T03:34:57;36.40;;;34.20;;
13849;SDS011;6995;52.618;13.488;2022-07-22T03:37:23;40.75;;;38.65;;
13849;SDS011;6995;52.618;13.488;2022-07-22T03:39:48;33.58;;;31.67;;
13849;SDS011;6995;52.618;13.488;2022-07-22T03:42:14;38.28;;;36.28;;
13849;SDS011;6995;52.618;13.488;2022-07-22T03:44:40;37.33;;;35.35;;
13849;SDS011;6995;52.618;13.488;2022-07-22T03:47:06;38.65;;;36.38;;
13849;SDS011;6995;52.618;13.488;2022-07-22T03:49:31;39.65;;;37.55;;
13849;SDS011;6995;52.618;13.488;2022-07-22T03:51:57;41.08;;;38.95;;
13849;SDS011;6995;52.618;13.488;2022-07-22T03:54:23;40.05;;;37.75;;
13849;SDS011;6995;52.618;13.488;2022-07-22T03:56:48;41.90;;;39.50;;
13849;SDS011;6995;52.618;13.488;2022-07-22T03:59:15;42.60;;;40.22;;
13849;SDS011;6995;52.618;13.488;2022-07-22T04:01:41;38.15;;;36.05;;
13849;SDS011;6995;52.618;13.488;2022-07-22T04:04:06;37.00;;;34.95;;
13849;SDS011;6995;52.618;13.488;2022-07-22T04:06:32;40.58;;;38.25;;
13849;SDS011;6995;52.618;13.488;2022-07-22T04:08:58;37.72;;;35.65;;
13849;SDS011;6995;52.618;13.488;2022-07-22T04:11:24;35.25;;;33.22;;
13849;SDS011;6995;52.618;13.488;2022-07-22T04:13:49;39.13;;;36.63;;
13849;SDS011;6995;52.618;13.488;2022-07-22T04:16:15;37.88;;;35.58;;
13849;SDS011;6995;52.618;13.488;2022-07-22T04:18:41;40.78;;;38.58;;
13849;SDS011;6995;52.618;13.488;2022-07-22T04:21:06;38.33;;;35.83;;
13849;SDS011;6995;52.618;13.488;2022-07-22T04:23:32;40.00;;;37.80;;
13849;SDS011;6995;52.618;13.488;2022-07-22T04:25:58;41.25;;;38.85;;
13849;SDS011;6995;52.618;13.488;2022-07-22T04:28:24;33.70;;;31.63;;
13849;SDS011;6995;52.618;13.488;2022-07-22T04:30:49;33.00;;;30.80;;
13849;SDS011;6995;52.618;13.488;2022-07-22T04:33:15;33.22;;;31.13;;
13849;SDS011;6995;52.618;13.488;2022-07-22T04:35:41;31.67;;;29.58;;
13849;SDS011;6995;52.618;13.488;2022-07-22T04:38:06;31.95;;;29.95;;
13849;SDS011;6995;52.618;13.488;2022-07-22T04:40:32;34.13;;;32.13;;
13849;SDS011;6995;52.618;13.488;2022-07-22T04:42:58;30.33;;;28.52;;
13849;SDS011;6995;52.618;13.488;2022-07-22T04:45:24;28.67;;;26.77;;
13849;SDS011;6995;52.618;13.488;2022-07-22T04:47:49;30.83;;;28.92;;
13849;SDS011;6995;52.618;13.488;2022-07-22T04:50:15;32.90;;;30.83;;
13849;SDS011;6995;52.618;13.488;2022-07-22T04:52:40;31.75;;;29.83;;
13849;SDS011;6995;52.618;13.488;2022-07-22T04:55:06;28.58;;;26.83;;
13849;SDS011;6995;52.618;13.488;2022-07-22T04:57:32;29.02;;;27.13;;
13849;SDS011;6995;52.618;13.488;2022-07-22T04:59:57;30.48;;;28.45;;
13849;SDS011;6995;52.618;13.488;2022-07-22T05:02:23;32.28;;;30.10;;
13849;SDS011;6995;52.618;13.488;2022-07-22T05:04:49;33.40;;;31.17;;
13849;SDS011;6995;52.618;13.488;2022-07-22T05:07:14;29.10;;;27.00;;
13849;SDS011;6995;52.618;13.488;2022-07-22T05:09:40;32.50;;;30.40;;
13849;SDS011;6995;52.618;13.488;2022-07-22T05:12:06;32.13;;;30.10;;
13849;SDS011;6995;52.618;13.488;2022-07-22T05:14:32;33.55;;;31.15;;
13849;SDS011;6995;52.618;13.488;2022-07-22T05:16:57;32.67;;;30.65;;
13849;SDS011;6995;52.618;13.488;2022-07-22T05:19:23;32.45;;;30.45;;
13849;SDS011;6995;52.618;13.488;2022-07-22T05:21:49;35.03;;;32.58;;
13849;SDS011;6995;52.618;13.488;2022-07-22T05:24:14;37.35;;;34.85;;
13849;SDS011;6995;52.618;13.488;2022-07-22T05:26:40;30.85;;;28.73;;
13849;SDS011;6995;52.618;13.488;2022-07-22T05:29:06;34.25;;;31.95;;
13849;SDS011;6995;52.618;13.488;2022-07-22T05:31:31;32.50;;;30.08;;
13849;SDS011;6995;52.618;13.488;2022-07-22T05:33:57;31.33;;;29.23;;
13849;SDS011;6995;52.618;13.488;2022-07-22T05:36:22;32.05;;;29.85;;
13849;SDS011;6995;52.618;13.488;2022-07-22T05:38:48;34.28;;;31.98;;
13849;SDS011;6995;52.618;13.488;2022-07-22T05:41:14;31.95;;;29.60;;
13849;SDS011;6995;52.618;13.488;2022-07-22T05:43:40;32.05;;;29.85;;
13849;SDS011;6995;52.618;13.488;2022-07-22T05:46:06;33.47;;;31.17;;
13849;SDS011;6995;52.618;13.488;2022-07-22T05:48:34;32.33;;;30.27;;
13849;SDS011;6995;52.618;13.488;2022-07-22T05:51:00;32.70;;;30.50;;
13849;SDS011;6995;52.618;13.488;2022-07-22T05:53:25;33.95;;;31.50;;
13849;SDS011;6995;52.618;13.488;2022-07-22T05:55:51;33.15;;;30.77;;
13849;SDS011;6995;52.618;13.488;2022-07-22T05:58:16;32.97;;;30.85;;
13849;SDS011;6995;52.618;13.488;2022-07-22T06:00:42;36.15;;;33.75;;
13849;SDS011;6995;52.618;13.488;2022-07-22T06:03:08;31.98;;;29.77;;
13849;SDS011;6995;52.618;13.488;2022-07-22T06:05:33;32.33;;;30.13;;
13849;SDS011;6995;52.618;13.488;2022-07-22T06:08:01;34.58;;;32.38;;
13849;SDS011;6995;52.618;13.488;2022-07-22T06:10:27;32.55;;;30.65;;
13849;SDS011;6995;52.618;13.488;2022-07-22T06:12:52;31.83;;;29.92;;
13849;SDS011;6995;52.618;13.488;2022-07-22T06:15:18;33.42;;;31.27;;
13849;SDS011;6995;52.618;13.488;2022-07-22T06:17:43;31.40;;;29.48;;
13849;SDS011;6995;52.618;13.488;2022-07-22T06:20:09;32.85;;;30.70;;
13849;SDS011;6995;52.618;13.488;2022-07-22T06:22:35;33.53;;;31.42;;
13849;SDS011;6995;52.618;13.488;2022-07-22T06:25:00;29.60;;;27.80;;
13849;SDS011;6995;52.618;13.488;2022-07-22T06:27:26;32.38;;;30.23;;
13849;SDS011;6995;52.618;13.488;2022-07-22T06:29:52;31.98;;;29.92;;
13849;SDS011;6995;52.618;13.488;2022-07-22T06:32:18;30.92;;;28.98;;
13849;SDS011;6995;52.618;13.488;2022-07-22T06:34:43;31.35;;;28.90;;
13849;SDS011;6995;52.618;13.488;2022-07-22T06:37:09;30.27;;;28.38;;
13849;SDS011;6995;52.618;13.488;2022-07-22T06:39:35;29.67;;;27.77;;
13849;SDS011;6995;52.618;13.488;2022-07-22T06:42:01;31.50;;;29.40;;
13849;SDS011;6995;52.618;13.488;2022-07-22T06:44:26;30.98;;;29.17;;
13849;SDS011;6995;52.618;13.488;2022-07-22T06:46:52;30.42;;;28.52;;
13849;SDS011;6995;52.618;13.488;2022-07-22T06:49:18;30.90;;;28.70;;
13849;SDS011;6995;52.618;13.488;2022-07-22T06:51:43;29.90;;;28.00;;
13849;SDS011;6995;52.618;13.488;2022-07-22T06:54:09;31.63;;;29.52;;
13849;SDS011;6995;52.618;13.488;2022-07-22T06:56:35;32.20;;;30.20;;
13849;SDS011;6995;52.618;13.488;2022-07-22T06:59:00;31.70;;;29.80;;
13849;SDS011;6995;52.618;13.488;2022-07-22T07:01:26;31.40;;;29.50;;
13849;SDS011;6995;52.618;13.488;2022-07-22T07:03:52;29.77;;;27.88;;
13849;SDS011;6995;52.618;13.488;2022-07-22T07:06:17;30.60;;;28.77;;
13849;SDS011;6995;52.618;13.488;2022-07-22T07:08:43;31.25;;;29.40;;
13849;SDS011;6995;52.618;13.488;2022-07-22T07:11:08;32.70;;;30.70;;
13849;SDS011;6995;52.618;13.488;2022-07-22T07:13:34;31.02;;;29.23;;
13849;SDS011;6995;52.618;13.488;2022-07-22T07:16:00;30.95;;;28.80;;
13849;SDS011;6995;52.618;13.488;2022-07-22T07:18:26;29.25;;;27.45;;
13849;SDS011;6995;52.618;13.488;2022-07-22T07:20:51;29.13;;;27.42;;
13849;SDS011;6995;52.618;13.488;2022-07-22T07:23:17;30.05;;;28.35;;
13849;SDS011;6995;52.618;13.488;2022-07-22T07:25:42;31.60;;;29.65;;
13849;SDS011;6995;52.618;13.488;2022-07-22T07:28:08;30.30;;;28.50;;
13849;SDS011;6995;52.618;13.488;2022-07-22T07:30:34;28.33;;;26.42;;
13849;SDS011;6995;52.618;13.488;2022-07-22T07:32:59;29.45;;;27.65;;
13849;SDS011;6995;52.618;13.488;2022-07-22T07:35:26;27.55;;;26.02;;
13849;SDS011;6995;52.618;13.488;2022-07-22T07:37:52;31.83;;;29.77;;
13849;SDS011;6995;52.618;13.488;2022-07-22T07:40:18;30.33;;;28.38;;
13849;SDS011;6995;52.618;13.488;2022-07-22T07:42:44;28.17;;;26.40;;
13849;SDS011;6995;52.618;13.488;2022-07-22T07:45:11;29.58;;;27.80;;
13849;SDS011;6995;52.618;13.488;2022-07-22T07:47:36;28.65;;;26.95;;
13849;SDS011;6995;52.618;13.488;2022-07-22T07:50:03;29.95;;;28.10;;
13849;SDS011;6995;52.618;13.488;2022-07-22T07:52:39;27.42;;;25.77;;
13849;SDS011;6995;52.618;13.488;2022-07-22T07:55:12;30.48;;;28.42;;
13849;SDS011;6995;52.618;13.488;2022-07-22T07:57:38;26.85;;;25.05;;
13849;SDS011;6995;52.618;13.488;2022-07-22T08:00:05;26.85;;;25.02;;
13849;SDS011;6995;52.618;13.488;2022-07-22T08:02:33;30.40;;;28.38;;
13849;SDS011;6995;52.618;13.488;2022-07-22T08:04:59;30.35;;;28.48;;
13849;SDS011;6995;52.618;13.488;2022-07-22T08:07:25;28.77;;;27.17;;
13849;SDS011;6995;52.618;13.488;2022-07-22T08:09:51;27.67;;;26.23;;
13849;SDS011;6995;52.618;13.488;2022-07-22T08:12:17;25.75;;;24.15;;
13849;SDS011;6995;52.618;13.488;2022-07-22T08:14:42;26.73;;;25.27;;
13849;SDS011;6995;52.618;13.488;2022-07-22T08:17:08;26.67;;;25.25;;
13849;SDS011;6995;52.618;13.488;2022-07-22T08:19:33;25.42;;;23.80;;
13849;SDS011;6995;52.618;13.488;2022-07-22T08:21:59;25.10;;;23.70;;
13849;SDS011;6995;52.618;13.488;2022-07-22T08:24:25;26.15;;;24.65;;
13849;SDS011;6995;52.618;13.488;2022-07-22T08:26:51;25.33;;;24.02;;
13849;SDS011;6995;52.618;13.488;2022-07-22T08:29:17;26.75;;;25.25;;
13849;SDS011;6995;52.618;13.488;2022-07-22T08:31:42;25.35;;;23.85;;
13849;SDS011;6995;52.618;13.488;2022-07-22T08:34:08;23.80;;;22.42;;
13849;SDS011;6995;52.618;13.488;2022-07-22T08:36:34;24.50;;;23.20;;
13849;SDS011;6995;52.618;13.488;2022-07-22T08:38:59;24.45;;;23.15;;
13849;SDS011;6995;52.618;13.488;2022-07-22T08:41:25;24.13;;;22.80;;
13849;SDS011;6995;52.618;13.488;2022-07-22T08:43:51;24.52;;;23.20;;
13849;SDS011;6995;52.618;13.488;2022-07-22T08:46:18;23.40;;;22.15;;
13849;SDS011;6995;52.618;13.488;2022-07-22T08:48:44;23.23;;;22.02;;
13849;SDS011;6995;52.618;13.488;2022-07-22T08:51:10;26.52;;;25.08;;
13849;SDS011;6995;52.618;13.488;2022-07-22T08:53:36;23.48;;;21.90;;
13849;SDS011;6995;52.618;13.488;2022-07-22T08:56:01;23.20;;;21.80;;
13849;SDS011;6995;52.618;13.488;2022-07-22T08:58:27;25.67;;;24.25;;
13849;SDS011;6995;52.618;13.488;2022-07-22T09:03:49;22.27;;;21.02;;
13849;SDS011;6995;52.618;13.488;2022-07-22T09:06:17;21.80;;;20.70;;
13849;SDS011;6995;52.618;13.488;2022-07-22T09:08:55;22.25;;;21.05;;
13849;SDS011;6995;52.618;13.488;2022-07-22T09:11:23;22.45;;;21.20;;
13849;SDS011;6995;52.618;13.488;2022-07-22T09:13:51;21.77;;;20.58;;
13849;SDS011;6995;52.618;13.488;2022-07-22T09:19:05;22.20;;;21.00;;
13849;SDS011;6995;52.618;13.488;2022-07-22T09:21:31;22.85;;;21.52;;
13849;SDS011;6995;52.618;13.488;2022-07-22T09:23:57;24.20;;;22.90;;
13849;SDS011;6995;52.618;13.488;2022-07-22T09:26:36;25.42;;;24.13;;
13849;SDS011;6995;52.618;13.488;2022-07-22T09:29:04;24.50;;;22.90;;
13849;SDS011;6995;52.618;13.488;2022-07-22T09:31:34;23.25;;;21.95;;
13849;SDS011;6995;52.618;13.488;2022-07-22T09:34:02;24.65;;;23.38;;
13849;SDS011;6995;52.618;13.488;2022-07-22T09:36:28;23.85;;;22.55;;
13849;SDS011;6995;52.618;13.488;2022-07-22T09:38:55;25.42;;;24.02;;
13849;SDS011;6995;52.618;13.488;2022-07-22T09:41:21;26.25;;;24.80;;
13849;SDS011;6995;52.618;13.488;2022-07-22T09:43:48;24.77;;;23.48;;
13849;SDS011;6995;52.618;13.488;2022-07-22T09:46:15;25.13;;;23.83;;
13849;SDS011;6995;52.618;13.488;2022-07-22T09:48:41;25.77;;;24.27;;
13849;SDS011;6995;52.618;13.488;2022-07-22T09:51:08;27.08;;;25.58;;
13849;SDS011;6995;52.618;13.488;2022-07-22T09:53:34;28.10;;;26.60;;
13849;SDS011;6995;52.618;13.488;2022-07-22T09:56:01;25.63;;;24.33;;
13849;SDS011;6995;52.618;13.488;2022-07-22T09:58:29;24.15;;;22.85;;
13849;SDS011;6995;52.618;13.488;2022-07-22T10:00:57;26.65;;;25.00;;
13849;SDS011;6995;52.618;13.488;2022-07-22T10:03:29;24.63;;;23.33;;
13849;SDS011;6995;52.618;13.488;2022-07-22T10:05:57;24.13;;;22.83;;
13849;SDS011;6995;52.618;13.488;2022-07-22T10:08:27;24.52;;;23.25;;
13849;SDS011;6995;52.618;13.488;2022-07-22T10:10:55;23.27;;;22.08;;
13849;SDS011;6995;52.618;13.488;2022-07-22T10:13:25;22.40;;;21.20;;
13849;SDS011;6995;52.618;13.488;2022-07-22T10:15:51;22.25;;;20.98;;
13849;SDS011;6995;52.618;13.488;2022-07-22T10:18:17;21.77;;;20.38;;
13849;SDS011;6995;52.618;13.488;2022-07-22T10:20:44;21.73;;;20.63;;
13849;SDS011;6995;52.618;13.488;2022-07-22T10:23:11;21.30;;;20.17;;
13849;SDS011;6995;52.618;13.488;2022-07-22T10:25:53;21.60;;;20.60;;
13849;SDS011;6995;52.618;13.488;2022-07-22T10:28:23;23.27;;;22.17;;
13849;SDS011;6995;52.618;13.488;2022-07-22T10:33:52;20.17;;;19.17;;
13849;SDS011;6995;52.618;13.488;2022-07-22T10:36:38;20.58;;;19.48;;
13849;SDS011;6995;52.618;13.488;2022-07-22T10:39:11;21.45;;;20.40;;
13849;SDS011;6995;52.618;13.488;2022-07-22T10:41:39;20.80;;;19.73;;
13849;SDS011;6995;52.618;13.488;2022-07-22T10:44:08;19.85;;;18.95;;
13849;SDS011;6995;52.618;13.488;2022-07-22T10:49:16;19.77;;;18.88;;
13849;SDS011;6995;52.618;13.488;2022-07-22T10:54:31;21.55;;;20.55;;
13849;SDS011;6995;52.618;13.488;2022-07-22T10:56:56;21.63;;;20.55;;
13849;SDS011;6995;52.618;13.488;2022-07-22T10:59:24;23.58;;;22.48;;
13849;SDS011;6995;52.618;13.488;2022-07-22T11:01:53;21.13;;;20.08;;
13849;SDS011;6995;52.618;13.488;2022-07-22T11:04:26;23.83;;;22.63;;
13849;SDS011;6995;52.618;13.488;2022-07-22T11:06:55;21.80;;;20.70;;
13849;SDS011;6995;52.618;13.488;2022-07-22T11:09:22;22.42;;;21.33;;
13849;SDS011;6995;52.618;13.488;2022-07-22T11:11:56;23.73;;;22.25;;
13849;SDS011;6995;52.618;13.488;2022-07-22T11:14:23;22.92;;;21.63;;
13849;SDS011;6995;52.618;13.488;2022-07-22T11:16:54;22.20;;;21.10;;
13849;SDS011;6995;52.618;13.488;2022-07-22T11:19:25;22.02;;;20.92;;
13849;SDS011;6995;52.618;13.488;2022-07-22T11:22:03;23.42;;;22.30;;
13849;SDS011;6995;52.618;13.488;2022-07-22T11:24:31;24.50;;;23.17;;
13849;SDS011;6995;52.618;13.488;2022-07-22T11:26:59;23.15;;;21.85;;
13849;SDS011;6995;52.618;13.488;2022-07-22T11:31:53;22.75;;;21.35;;
13849;SDS011;6995;52.618;13.488;2022-07-22T11:34:22;24.83;;;23.52;;
13849;SDS011;6995;52.618;13.488;2022-07-22T11:36:49;22.75;;;21.45;;
13849;SDS011;6995;52.618;13.488;2022-07-22T11:39:18;21.95;;;20.85;;
13849;SDS011;6995;52.618;13.488;2022-07-22T11:41:49;23.83;;;22.55;;
13849;SDS011;6995;52.618;13.488;2022-07-22T11:44:20;25.48;;;24.08;;
13849;SDS011;6995;52.618;13.488;2022-07-22T11:46:47;24.33;;;23.13;;
13849;SDS011;6995;52.618;13.488;2022-07-22T11:49:17;21.95;;;20.77;;
13849;SDS011;6995;52.618;13.488;2022-07-22T11:51:45;23.25;;;21.90;;
13849;SDS011;6995;52.618;13.488;2022-07-22T11:54:12;23.00;;;21.73;;
13849;SDS011;6995;52.618;13.488;2022-07-22T11:56:38;23.70;;;22.50;;
13849;SDS011;6995;52.618;13.488;2022-07-22T11:59:04;21.95;;;20.92;;
13849;SDS011;6995;52.618;13.488;2022-07-22T12:01:35;23.13;;;22.02;;
13849;SDS011;6995;52.618;13.488;2022-07-22T12:04:02;23.35;;;22.13;;
13849;SDS011;6995;52.618;13.488;2022-07-22T12:06:31;22.00;;;20.90;;
13849;SDS011;6995;52.618;13.488;2022-07-22T12:09:08;23.67;;;22.35;;
13849;SDS011;6995;52.618;13.488;2022-07-22T12:11:40;36.17;;;24.95;;
13849;SDS011;6995;52.618;13.488;2022-07-22T12:14:11;23.08;;;21.77;;
13849;SDS011;6995;52.618;13.488;2022-07-22T12:16:40;28.05;;;26.50;;
13849;SDS011;6995;52.618;13.488;2022-07-22T12:19:07;25.85;;;24.45;;
13849;SDS011;6995;52.618;13.488;2022-07-22T12:21:36;32.67;;;31.08;;
13849;SDS011;6995;52.618;13.488;2022-07-22T12:24:14;31.15;;;29.55;;
13849;SDS011;6995;52.618;13.488;2022-07-22T12:31:44;24.27;;;23.08;;
13849;SDS011;6995;52.618;13.488;2022-07-22T12:34:13;28.20;;;26.90;;
13849;SDS011;6995;52.618;13.488;2022-07-22T12:36:43;27.83;;;26.50;;
13849;SDS011;6995;52.618;13.488;2022-07-22T12:39:15;22.98;;;21.67;;
13849;SDS011;6995;52.618;13.488;2022-07-22T12:41:49;20.95;;;19.98;;
13849;SDS011;6995;52.618;13.488;2022-07-22T12:44:17;26.55;;;25.33;;
13849;SDS011;6995;52.618;13.488;2022-07-22T12:46:48;28.92;;;27.52;;
13849;SDS011;6995;52.618;13.488;2022-07-22T12:49:17;21.10;;;20.10;;
13849;SDS011;6995;52.618;13.488;2022-07-22T12:54:32;24.10;;;23.02;;
13849;SDS011;6995;52.618;13.488;2022-07-22T12:56:58;28.85;;;27.35;;
13849;SDS011;6995;52.618;13.488;2022-07-22T12:59:24;30.42;;;29.02;;
13849;SDS011;6995;52.618;13.488;2022-07-22T13:01:51;25.30;;;23.70;;
13849;SDS011;6995;52.618;13.488;2022-07-22T13:04:17;31.88;;;29.50;;
13849;SDS011;6995;52.618;13.488;2022-07-22T13:06:43;24.33;;;23.23;;
13849;SDS011;6995;52.618;13.488;2022-07-22T13:09:09;23.33;;;22.30;;
13849;SDS011;6995;52.618;13.488;2022-07-22T13:11:35;25.73;;;24.52;;
13849;SDS011;6995;52.618;13.488;2022-07-22T13:14:04;31.90;;;30.27;;
13849;SDS011;6995;52.618;13.488;2022-07-22T13:16:31;28.98;;;27.60;;
13849;SDS011;6995;52.618;13.488;2022-07-22T13:18:57;32.17;;;30.58;;
13849;SDS011;6995;52.618;13.488;2022-07-22T13:21:23;28.30;;;27.00;;
13849;SDS011;6995;52.618;13.488;2022-07-22T13:23:50;20.50;;;19.40;;
13849;SDS011;6995;52.618;13.488;2022-07-22T13:26:16;20.08;;;19.02;;
13849;SDS011;6995;52.618;13.488;2022-07-22T13:28:41;19.50;;;18.40;;
13849;SDS011;6995;52.618;13.488;2022-07-22T13:31:08;19.23;;;17.73;;
13849;SDS011;6995;52.618;13.488;2022-07-22T13:33:34;17.77;;;16.88;;
13849;SDS011;6995;52.618;13.488;2022-07-22T13:35:59;19.92;;;18.83;;
13849;SDS011;6995;52.618;13.488;2022-07-22T13:38:26;16.98;;;16.27;;
13849;SDS011;6995;52.618;13.488;2022-07-22T13:40:51;18.90;;;17.90;;
13849;SDS011;6995;52.618;13.488;2022-07-22T13:43:18;18.52;;;17.42;;
13849;SDS011;6995;52.618;13.488;2022-07-22T13:45:51;28.27;;;27.02;;
13849;SDS011;6995;52.618;13.488;2022-07-22T13:48:17;20.77;;;19.88;;
13849;SDS011;6995;52.618;13.488;2022-07-22T13:50:44;17.98;;;17.08;;
13849;SDS011;6995;52.618;13.488;2022-07-22T13:53:11;18.08;;;17.17;;
13849;SDS011;6995;52.618;13.488;2022-07-22T13:55:39;17.65;;;16.85;;
13849;SDS011;6995;52.618;13.488;2022-07-22T13:58:05;20.63;;;19.63;;
13849;SDS011;6995;52.618;13.488;2022-07-22T14:00:32;19.20;;;18.27;;
13849;SDS011;6995;52.618;13.488;2022-07-22T14:02:58;21.23;;;20.20;;
13849;SDS011;6995;52.618;13.488;2022-07-22T14:05:23;19.52;;;18.73;;
13849;SDS011;6995;52.618;13.488;2022-07-22T14:07:49;19.20;;;18.13;;
13849;SDS011;6995;52.618;13.488;2022-07-22T14:10:15;20.10;;;19.02;;
13849;SDS011;6995;52.618;13.488;2022-07-22T14:12:41;18.60;;;17.70;;
13849;SDS011;6995;52.618;13.488;2022-07-22T14:15:07;18.33;;;17.48;;
13849;SDS011;6995;52.618;13.488;2022-07-22T14:17:34;19.15;;;18.17;;
13849;SDS011;6995;52.618;13.488;2022-07-22T14:20:00;18.85;;;18.00;;
13849;SDS011;6995;52.618;13.488;2022-07-22T14:22:27;20.42;;;19.42;;
13849;SDS011;6995;52.618;13.488;2022-07-22T14:24:53;21.10;;;20.10;;
13849;SDS011;6995;52.618;13.488;2022-07-22T14:27:19;23.42;;;22.20;;
13849;SDS011;6995;52.618;13.488;2022-07-22T14:29:44;23.38;;;22.17;;
13849;SDS011;6995;52.618;13.488;2022-07-22T14:32:10;19.63;;;18.73;;
13849;SDS011;6995;52.618;13.488;2022-07-22T14:34:36;21.83;;;20.77;;
13849;SDS011;6995;52.618;13.488;2022-07-22T14:37:01;20.40;;;19.40;;
13849;SDS011;6995;52.618;13.488;2022-07-22T14:39:27;21.70;;;20.42;;
13849;SDS011;6995;52.618;13.488;2022-07-22T14:41:53;22.90;;;21.90;;